الصفحة الرئيسية
METAR-TAF:

METAR-TAF

مطار :

مطار انجمينا الدولي

انجمينا, تشاد

دائرة عرض: 12-08N, خط طول: 015-02E, ارتفاع: 295 متر

مراقبة الطقس الحالي

تاريخ ووقت الإصدار 31 دقيقة قبل الساعة 07:00UTC
ريح 10 عقدة من الشمال الشرقي
درجة الحرارة 26°درجة مئوية
الرطوبة 24%
ضغط 1011 hPa
الرؤية: 6000 متر

METAR: FTTJ 150700Z 04010KT 6000 NSC 26/04 Q1011 NOSIG

زمن: 08:31 (07:31 UTC)

توقعات

تاريخ ووقت الإصدار 2ساعات و 31 دقيقة قبل الساعة 05:00UTC
التوقعات صالحة من15 الساعة 06 UTC إلى 16 الساعة 12 UTC
ريح 4 عقدةمن اتجاهات متغيرة
الرؤية: 6000 متر
مؤقت
من 15 الساعة 08 UTC إلى 15 الساعة 16 UTC
ريح 10 عقدة من الشمال الشرقي
الرؤية 10 كم أو أكثر
الغيوم لا تقل 1500 م ولا وجود لمزنة ركامية السحاب الأسود

TAF: FTTJ 150500Z 1506/1612 VRB04KT 6000 NSC TEMPO 1508/1516 04010KT CAVOK

أرصاد الطقس والتوقعات من أكثر من 4000 مطار (تقارير الطقس للمطار METAR والتنبؤ بالطقس بالمطارTAF).

المحطات المتاحة هي النقط الصفراء والحمراء على الخريطة.

حرك المؤشر فوق النقطة لمعرفة اسم المحطة.

ثم انقر لمعرفة أرصاد وتوقعات الطقس.

لتغيير الخارطة: اضغط على الأزرار الخضراء مع رمز الصليب الأسود للتكبير. على الزر الأخضر مع شرطة للتصغير، أو على الأسهم الخضراء للخرائط المجاورة.


METAR-TAF: